Main page
METAR-TAF:

METAR-TAF

Airports :

Alamogordo–White Sands Regional Airport

Alamogordo, New Mexico, United States

latitude: 32-50N, longitude: 105-59W, elevation: 4195 ft

Current weather observation

The report was made 16 minutes ago, at 14:55 UTC
Wind 7 mph from the North/Northwest
Temperature 70°F
Humidity 46%
Pressure 30.06 in. Hg
Visibility: 10 miles
Clear sky

METAR: KALM 211455Z AUTO 34006KT 10SM CLR 21/09 A3006 RMK AO2

Time: 09:11 (15:11 UTC)


TAF: missing

Weather observations and forecasts of more than 4000 airports (METAR and TAF reports).

The available stations are represented by yellow and red dots on the map.

Hover mouse over dot to see the name of the station.

Then click to see weather observations and forecasts.

To change the map : click on the green buttons with a black cross to zoom in, on the green button with a dash to zoom out, or on the green arrows for adjacent maps.


METAR-TAF: